Time;durP1;ratioP1;P1;durP2;ratioP2;P2;SDS_P1;SDS_P2;PMS_P1;PMS_P2;Temp;Humidity;BMP_temperature;BMP_pressure;BME280_temperature;BME280_humidity;BME280_pressure;Samples;Min_cycle;Max_cycle;Signal;HPM_P1;HPM_P2
2021/09/22 00:00:23;;;;;;;21.77;12.65;;;;;;;10.39;91.50;97731.69;4973927;28;20054;-64
2021/09/22 00:03:09;;;;;;;21.67;12.65;;;;;;;10.32;91.12;97730.31;4973375;28;20050;-62
2021/09/22 00:05:54;;;;;;;24.77;13.57;;;;;;;10.14;92.27;97729.69;4979396;28;20039;-61
2021/09/22 00:08:40;;;;;;;23.50;11.77;;;;;;;10.04;93.21;97724.63;4978588;28;20055;-62
2021/09/22 00:11:26;;;;;;;21.75;11.95;;;;;;;10.07;93.94;97728.63;4972869;28;20633;-61
2021/09/22 00:14:11;;;;;;;20.10;12.02;;;;;;;10.02;94.01;97720.63;4981025;28;20027;-61
2021/09/22 00:16:57;;;;;;;23.75;12.32;;;;;;;9.99;93.08;97726.78;5020010;28;20076;-60
2021/09/22 00:19:43;;;;;;;20.83;12.88;;;;;;;10.08;92.89;97716.53;4999042;28;20038;-62
2021/09/22 00:22:29;;;;;;;22.08;12.38;;;;;;;10.05;92.65;97717.22;4974307;28;20053;-61
2021/09/22 00:25:16;;;;;;;21.27;11.98;;;;;;;9.99;93.54;97713.09;4974045;28;20067;-64
2021/09/22 00:28:03;;;;;;;17.27;11.25;;;;;;;9.96;93.28;97717.31;4976809;28;20050;-61
2021/09/22 00:30:49;;;;;;;18.45;11.63;;;;;;;9.90;94.01;97719.47;4989972;28;20269;-63
2021/09/22 00:33:34;;;;;;;20.38;11.93;;;;;;;9.76;93.49;97716.22;5000625;28;20055;-62
2021/09/22 00:36:20;;;;;;;22.88;12.23;;;;;;;9.84;94.50;97711.78;4984394;28;20041;-62
2021/09/22 00:39:06;;;;;;;18.48;11.18;;;;;;;9.79;94.27;97715.53;4993244;28;20065;-60
2021/09/22 00:41:52;;;;;;;21.20;13.00;;;;;;;9.78;94.42;97716.69;4978577;28;20121;-63
2021/09/22 00:44:56;;;;;;;18.73;10.88;;;;;;;9.74;94.22;97721.19;4978116;28;20042;-62
2021/09/22 00:47:41;;;;;;;21.20;11.50;;;;;;;9.63;94.36;97720.03;4976529;28;20583;-63
2021/09/22 00:50:27;;;;;;;19.88;11.13;;;;;;;9.53;95.54;97723.97;4972867;28;20057;-61
2021/09/22 00:53:13;;;;;;;16.42;10.32;;;;;;;9.41;96.71;97716.50;4972424;28;20046;-63
2021/09/22 00:55:59;;;;;;;22.33;11.48;;;;;;;9.07;97.86;97726.56;4980304;28;20136;-63
2021/09/22 00:58:45;;;;;;;20.52;12.27;;;;;;;8.84;100.00;97734.25;4985250;28;20045;-61
2021/09/22 01:01:32;;;;;;;22.08;11.57;;;;;;;8.66;100.00;97733.56;4989322;28;20050;-61
2021/09/22 01:04:17;;;;;;;21.33;11.68;;;;;;;8.65;100.00;97729.22;4982120;28;20045;-63
2021/09/22 01:07:04;;;;;;;20.50;12.48;;;;;;;8.64;100.00;97729.53;4977209;28;20598;-61
2021/09/22 01:09:50;;;;;;;22.75;12.23;;;;;;;8.56;100.00;97728.44;4995671;28;20042;-63
2021/09/22 01:12:36;;;;;;;21.42;13.30;;;;;;;8.31;100.00;97743.78;4995370;28;20580;-63
2021/09/22 01:15:26;;;;;;;21.40;11.60;;;;;;;8.57;100.00;97733.59;4973827;28;20358;-63
2021/09/22 01:18:17;;;;;;;;;;;;;;;8.67;100.00;97737.06;4971766;28;20038;-62
2021/09/22 01:21:03;;;;;;;22.83;13.02;;;;;;;8.60;100.00;97738.38;4974994;28;19914;-60
2021/09/22 01:23:48;;;;;;;21.50;11.93;;;;;;;8.67;100.00;97743.34;4964161;28;20038;-63
2021/09/22 01:26:34;;;;;;;25.33;13.18;;;;;;;8.55;100.00;97741.31;4983456;28;20041;-61
2021/09/22 01:29:20;;;;;;;24.48;13.25;;;;;;;8.62;100.00;97743.50;4987669;28;20042;-63
2021/09/22 01:32:06;;;;;;;21.33;12.27;;;;;;;8.86;100.00;97744.84;4972567;28;20110;-63
2021/09/22 01:34:52;;;;;;;23.17;13.13;;;;;;;8.95;100.00;97748.34;4977864;28;20057;-63
2021/09/22 01:37:37;;;;;;;22.92;11.90;;;;;;;8.91;100.00;97752.84;4977296;28;20038;-64
2021/09/22 01:40:23;;;;;;;22.08;12.18;;;;;;;8.74;100.00;97754.53;4972413;28;20178;-62
2021/09/22 01:43:08;;;;;;;22.30;11.98;;;;;;;8.39;100.00;97751.94;4973683;28;20479;-62
2021/09/22 01:45:55;;;;;;;22.83;13.38;;;;;;;8.07;100.00;97764.22;4976558;28;20054;-62
2021/09/22 01:48:41;;;;;;;25.35;13.73;;;;;;;8.00;100.00;97753.78;4977350;28;20070;-61
2021/09/22 01:51:27;;;;;;;22.58;12.77;;;;;;;8.01;100.00;97749.94;4972008;28;20047;-61
2021/09/22 01:54:12;;;;;;;24.27;12.70;;;;;;;8.09;100.00;97755.72;4972750;28;20050;-62
2021/09/22 01:56:58;;;;;;;23.83;13.48;;;;;;;8.05;100.00;97755.56;4962480;28;20093;-62
2021/09/22 01:59:44;;;;;;;22.45;12.18;;;;;;;7.86;100.00;97753.16;4976209;28;20104;-64
2021/09/22 02:02:31;;;;;;;22.40;12.50;;;;;;;7.72;100.00;97752.53;4976100;28;20137;-61
2021/09/22 02:05:16;;;;;;;22.25;12.70;;;;;;;7.71;100.00;97750.97;4971000;28;20403;-62
2021/09/22 02:08:03;;;;;;;22.23;12.63;;;;;;;7.74;100.00;97751.13;4977615;28;20109;-62
2021/09/22 02:10:48;;;;;;;24.92;12.88;;;;;;;7.61;100.00;97760.25;4990926;28;20037;-63
2021/09/22 02:13:35;;;;;;;21.08;12.48;;;;;;;7.59;100.00;97760.56;4975199;28;20140;-63
2021/09/22 02:16:20;;;;;;;24.27;13.25;;;;;;;7.75;100.00;97752.69;4972384;28;20038;-65
2021/09/22 02:19:06;;;;;;;22.48;13.15;;;;;;;7.87;100.00;97752.06;4971893;28;20050;-62
2021/09/22 02:21:52;;;;;;;22.15;12.52;;;;;;;7.88;100.00;97750.13;4977705;28;20086;-63
2021/09/22 02:24:42;;;;;;;23.23;13.40;;;;;;;8.05;100.00;97747.38;4976263;28;20443;-61
2021/09/22 02:27:28;;;;;;;22.60;12.88;;;;;;;8.04;100.00;97748.50;4974508;28;20054;-62
2021/09/22 02:30:18;;;;;;;22.73;12.57;;;;;;;8.08;100.00;97748.66;4972263;28;20109;-63
2021/09/22 02:33:03;;;;;;;21.55;12.90;;;;;;;8.07;100.00;97744.28;4973575;28;20108;-60
2021/09/22 02:35:49;;;;;;;23.00;12.63;;;;;;;8.06;100.00;97739.97;4977458;28;20132;-62
2021/09/22 02:38:35;;;;;;;21.73;11.35;;;;;;;7.93;100.00;97737.13;4975658;28;20488;-61
2021/09/22 02:41:20;;;;;;;20.98;11.50;;;;;;;7.83;100.00;97742.91;4971052;28;20045;-59
2021/09/22 02:44:06;;;;;;;20.90;11.23;;;;;;;7.82;100.00;97749.50;4972640;28;20133;-60
2021/09/22 02:46:52;;;;;;;23.80;12.15;;;;;;;7.84;100.00;97737.13;4993825;28;20066;-63
2021/09/22 02:49:38;;;;;;;21.00;12.73;;;;;;;7.72;100.00;97731.53;4997922;28;20050;-62
2021/09/22 02:52:23;;;;;;;20.45;11.70;;;;;;;7.46;100.00;97729.63;4974925;28;20085;-61
2021/09/22 02:55:09;;;;;;;21.08;12.48;;;;;;;7.26;100.00;97733.78;4975506;28;20034;-63
2021/09/22 02:57:55;;;;;;;22.83;13.07;;;;;;;7.22;100.00;97729.28;4981778;28;20038;-60
2021/09/22 03:00:40;;;;;;;22.33;12.45;;;;;;;7.30;100.00;97731.22;4979753;28;20051;-61
2021/09/22 03:03:27;;;;;;;23.63;13.45;;;;;;;7.24;100.00;97732.50;4994141;28;20556;-61
2021/09/22 03:06:13;;;;;;;22.90;13.77;;;;;;;7.13;100.00;97723.03;4976349;28;20466;-60
2021/09/22 03:08:59;;;;;;;26.75;13.77;;;;;;;7.22;100.00;97724.66;4994000;28;20069;-62
2021/09/22 03:11:44;;;;;;;26.48;13.63;;;;;;;7.10;100.00;97732.66;4990472;28;20490;-60
2021/09/22 03:14:30;;;;;;;21.70;12.35;;;;;;;7.16;100.00;97723.19;4980690;28;20092;-61
2021/09/22 03:17:16;;;;;;;24.85;12.02;;;;;;;7.43;100.00;97724.00;4992854;28;20495;-63
2021/09/22 03:20:03;;;;;;;23.48;11.95;;;;;;;7.50;100.00;97713.41;4980710;28;20050;-60
2021/09/22 03:22:49;;;;;;;21.85;12.35;;;;;;;7.56;100.00;97714.06;4978562;28;20042;-62
2021/09/22 03:25:34;;;;;;;25.33;12.88;;;;;;;7.54;100.00;97705.41;4979442;28;20746;-62
2021/09/22 03:28:21;;;;;;;19.83;11.75;;;;;;;7.47;100.00;97716.78;4980489;28;20103;-62
2021/09/22 03:31:06;;;;;;;21.73;12.55;;;;;;;7.30;100.00;97720.31;4987332;28;20675;-65
2021/09/22 03:33:52;;;;;;;26.58;12.77;;;;;;;7.30;100.00;97719.53;4993353;28;20034;-62
2021/09/22 03:36:38;;;;;;;23.50;12.32;;;;;;;7.41;100.00;97718.88;4996218;28;20069;-61
2021/09/22 03:39:24;;;;;;;23.27;11.95;;;;;;;7.52;100.00;97713.91;4994247;28;20604;-63
2021/09/22 03:42:09;;;;;;;21.55;11.35;;;;;;;7.57;100.00;97707.50;4995191;28;20069;-61
2021/09/22 03:44:55;;;;;;;23.27;12.07;;;;;;;7.63;100.00;97707.00;4981574;28;20129;-60
2021/09/22 03:47:41;;;;;;;23.48;12.90;;;;;;;7.62;100.00;97704.59;4994970;28;20042;-61
2021/09/22 03:50:27;;;;;;;22.90;13.20;;;;;;;7.57;100.00;97688.41;4992772;28;20053;-62
2021/09/22 03:53:15;;;;;;;22.45;12.07;;;;;;;7.44;100.00;97701.88;4992529;28;20038;-63
2021/09/22 03:56:02;;;;;;;25.45;13.35;;;;;;;7.55;100.00;97702.34;4998573;28;20053;-63
2021/09/22 03:58:47;;;;;;;24.17;12.85;;;;;;;7.58;100.00;97696.28;4997048;28;20046;-63
2021/09/22 04:01:33;;;;;;;21.67;12.00;;;;;;;7.57;100.00;97702.84;4997771;28;20446;-62
2021/09/22 04:04:19;;;;;;;23.05;11.95;;;;;;;7.45;100.00;97699.94;4981712;28;20077;-62
2021/09/22 04:07:04;;;;;;;22.55;11.63;;;;;;;7.31;100.00;97691.13;4996529;28;20049;-59
2021/09/22 04:09:50;;;;;;;21.83;11.98;;;;;;;7.13;100.00;97698.50;4987982;28;20046;-63
2021/09/22 04:12:36;;;;;;;23.27;12.27;;;;;;;7.03;100.00;97696.91;4976576;28;20046;-61
2021/09/22 04:15:22;;;;;;;23.30;13.10;;;;;;;6.96;100.00;97699.28;4974478;28;21151;-61
2021/09/22 04:18:07;;;;;;;24.92;12.38;;;;;;;6.94;100.00;97701.53;4971290;28;20042;-61
2021/09/22 04:20:53;;;;;;;24.25;12.75;;;;;;;7.06;100.00;97705.25;4977929;28;20766;-61
2021/09/22 04:23:39;;;;;;;27.80;15.52;;;;;;;7.17;100.00;97707.66;4977697;28;20042;-60
2021/09/22 04:26:25;;;;;;;32.42;15.68;;;;;;;7.26;100.00;97700.28;4973762;28;20104;-63
2021/09/22 04:29:11;;;;;;;32.25;16.67;;;;;;;7.44;100.00;97712.00;4973513;28;20038;-63
2021/09/22 04:31:57;;;;;;;33.28;16.40;;;;;;;7.49;100.00;97706.38;4978978;28;20499;-62
2021/09/22 04:34:42;;;;;;;27.30;14.60;;;;;;;7.53;100.00;97707.34;4981021;28;20072;-60
2021/09/22 04:37:35;;;;;;;30.17;15.85;;;;;;;7.56;100.00;97703.97;4975247;28;20125;-61
2021/09/22 04:40:20;;;;;;;31.08;16.00;;;;;;;7.56;100.00;97712.16;4973827;28;20510;-60
2021/09/22 04:43:06;;;;;;;31.77;17.13;;;;;;;7.58;100.00;97717.25;4972947;28;20038;-61
2021/09/22 04:45:52;;;;;;;34.50;17.60;;;;;;;7.66;100.00;97714.53;4977979;28;20081;-61
2021/09/22 04:48:39;;;;;;;31.55;16.38;;;;;;;7.70;100.00;97709.22;4976751;28;20129;-63
2021/09/22 04:51:24;;;;;;;33.25;17.33;;;;;;;7.71;100.00;97710.06;4971312;28;20069;-60
2021/09/22 04:54:10;;;;;;;31.98;17.48;;;;;;;7.76;100.00;97715.31;4973763;28;20466;-62
2021/09/22 04:56:56;;;;;;;34.78;18.35;;;;;;;7.73;100.00;97724.94;4978835;28;20551;-60
2021/09/22 04:59:41;;;;;;;32.08;16.92;;;;;;;7.71;100.00;97724.47;4995650;28;20068;-61
2021/09/22 05:02:27;;;;;;;33.72;17.48;;;;;;;7.68;100.00;97718.88;4986232;28;20053;-64
2021/09/22 05:05:13;;;;;;;37.95;18.40;;;;;;;7.73;100.00;97726.88;4971861;28;20322;-61
2021/09/22 05:08:01;;;;;;;35.30;17.15;;;;;;;7.74;100.00;97725.75;4977414;28;20193;-60
2021/09/22 05:10:47;;;;;;;34.22;18.08;;;;;;;7.79;100.00;97720.91;4991472;28;20591;-62
2021/09/22 05:13:32;;;;;;;34.38;17.33;;;;;;;7.81;100.00;97726.06;4976253;28;20706;-61
2021/09/22 05:16:18;;;;;;;31.58;17.50;;;;;;;7.74;100.00;97740.22;4984758;28;20047;-61
2021/09/22 05:19:04;;;;;;;34.67;17.98;;;;;;;7.75;100.00;97739.06;4991982;28;20563;-60
2021/09/22 05:21:50;;;;;;;38.65;19.73;;;;;;;7.75;100.00;97743.72;4995357;28;20124;-61
2021/09/22 05:24:35;;;;;;;38.42;19.42;;;;;;;7.71;100.00;97724.47;4993904;28;20050;-61
2021/09/22 05:27:21;;;;;;;37.00;18.90;;;;;;;7.75;100.00;97738.28;4988532;28;20575;-61
2021/09/22 05:30:07;;;;;;;33.70;18.38;;;;;;;7.74;100.00;97744.84;4980374;28;20057;-61
2021/09/22 05:32:53;;;;;;;37.17;19.45;;;;;;;7.76;100.00;97746.13;4993689;28;20050;-62
2021/09/22 05:35:39;;;;;;;35.47;18.67;;;;;;;7.75;100.00;97741.78;4999076;28;20608;-63
2021/09/22 05:38:24;;;;;;;37.75;19.58;;;;;;;7.79;100.00;97742.75;4997892;28;20734;-60
2021/09/22 05:41:10;;;;;;;36.95;19.90;;;;;;;7.88;100.00;97753.66;4990123;28;20034;-61
2021/09/22 05:43:56;;;;;;;35.83;19.08;;;;;;;7.89;100.00;97746.28;5035540;23;20038;-64
2021/09/22 05:46:42;;;;;;;35.63;18.55;;;;;;;7.95;100.00;97753.97;4976433;28;20050;-65
2021/09/22 05:49:28;;;;;;;36.95;18.17;;;;;;;7.93;100.00;97755.41;4987920;28;20106;-67
2021/09/22 05:52:14;;;;;;;37.42;18.20;;;;;;;8.01;99.99;97751.84;5009011;28;20049;-66
2021/09/22 05:54:59;;;;;;;34.17;18.17;;;;;;;8.04;100.00;97754.75;4999403;28;20062;-66
2021/09/22 05:57:45;;;;;;;37.67;18.73;;;;;;;8.24;98.53;97752.44;4998783;28;20541;-65
2021/09/22 06:00:31;;;;;;;32.50;17.35;;;;;;;8.43;97.34;97760.31;4999585;28;20053;-64
2021/09/22 06:03:16;;;;;;;31.85;17.17;;;;;;;8.56;96.58;97761.22;4994293;28;20054;-64
2021/09/22 06:06:02;;;;;;;33.55;17.42;;;;;;;8.70;94.92;97750.88;4992940;28;20394;-64
2021/09/22 06:08:48;;;;;;;34.47;17.73;;;;;;;8.90;94.47;97762.19;5003774;28;20441;-64
2021/09/22 06:11:34;;;;;;;32.53;16.90;;;;;;;9.04;93.99;97760.03;4999015;28;20050;-64
2021/09/22 06:14:19;;;;;;;31.33;16.55;;;;;;;9.06;92.52;97760.50;4996661;28;20080;-63
2021/09/22 06:17:05;;;;;;;32.47;17.80;;;;;;;9.24;92.30;97760.38;5000433;28;20042;-64
2021/09/22 06:19:51;;;;;;;29.02;16.05;;;;;;;9.40;91.12;97760.59;4992445;28;20050;-65
2021/09/22 06:22:37;;;;;;;28.83;16.13;;;;;;;9.47;90.80;97767.16;5001871;28;20211;-64
2021/09/22 06:25:23;;;;;;;31.70;16.35;;;;;;;9.56;90.49;97753.38;4999676;28;20132;-64
2021/09/22 06:28:09;;;;;;;32.03;16.30;;;;;;;9.52;90.20;97757.94;4988380;28;20133;-65
2021/09/22 06:30:54;;;;;;;27.75;15.45;;;;;;;9.69;89.59;97760.53;4999995;28;20049;-65
2021/09/22 06:33:40;;;;;;;27.50;15.95;;;;;;;9.74;89.04;97768.53;5008953;28;20091;-64
2021/09/22 06:36:26;;;;;;;27.55;15.48;;;;;;;9.96;87.50;97769.31;4997982;28;20045;-64
2021/09/22 06:39:12;;;;;;;26.98;16.05;;;;;;;10.03;86.27;97758.63;4989477;28;20053;-66
2021/09/22 06:41:57;;;;;;;27.98;15.45;;;;;;;10.22;85.29;97760.81;4995675;28;20041;-66
2021/09/22 06:44:43;;;;;;;26.55;14.95;;;;;;;10.57;83.96;97756.94;4988697;28;20046;-64
2021/09/22 06:47:28;;;;;;;24.38;14.60;;;;;;;10.61;83.13;97761.41;4998269;28;20511;-65
2021/09/22 06:50:15;;;;;;;24.60;14.30;;;;;;;10.78;83.26;97765.84;4976477;28;20050;-65
2021/09/22 06:53:01;;;;;;;26.13;15.35;;;;;;;10.71;83.02;97766.44;4990475;28;20065;-65
2021/09/22 06:55:46;;;;;;;25.95;13.90;;;;;;;11.21;80.26;97766.41;4994446;28;20050;-65
2021/09/22 06:58:32;;;;;;;24.95;14.82;;;;;;;11.03;81.93;97760.38;4996728;28;20138;-65
2021/09/22 07:01:18;;;;;;;27.90;14.75;;;;;;;10.94;82.26;97765.19;4999366;28;20053;-65
2021/09/22 07:04:04;;;;;;;22.05;13.20;;;;;;;11.96;78.89;97770.63;4992170;28;20119;-63
2021/09/22 07:06:49;;;;;;;28.33;15.43;;;;;;;12.15;76.64;97757.00;5002823;28;20056;-65
2021/09/22 07:09:36;;;;;;;24.13;12.88;;;;;;;12.16;77.30;97764.09;4990516;28;20062;-65
2021/09/22 07:12:22;;;;;;;23.23;13.98;;;;;;;11.88;77.16;97766.81;4969886;28;22101;-64
2021/09/22 07:15:08;;;;;;;21.55;12.73;;;;;;;12.58;73.78;97751.84;4977640;28;20123;-65
2021/09/22 07:17:54;;;;;;;24.42;14.00;;;;;;;12.43;75.63;97758.94;5003831;28;20045;-65
2021/09/22 07:20:40;;;;;;;24.80;14.13;;;;;;;12.11;75.43;97758.06;4993944;28;20044;-67
2021/09/22 07:23:25;;;;;;;22.90;13.75;;;;;;;12.60;75.83;97764.09;4990065;28;20414;-65
2021/09/22 07:26:12;;;;;;;23.10;13.77;;;;;;;12.45;73.79;97764.84;4991375;28;20042;-67
2021/09/22 07:28:58;;;;;;;22.77;13.15;;;;;;;12.53;73.87;97776.81;5001580;28;20398;-65
2021/09/22 07:31:44;;;;;;;22.13;12.55;;;;;;;12.89;74.43;97763.97;4996068;28;20064;-64
2021/09/22 07:34:30;;;;;;;21.67;13.70;;;;;;;13.08;72.38;97772.31;4992544;28;20486;-67
2021/09/22 07:37:18;;;;;;;21.27;13.30;;;;;;;13.29;70.67;97763.75;4996607;28;20116;-65
2021/09/22 07:40:05;;;;;;;19.60;11.90;;;;;;;13.32;71.27;97765.00;4994536;28;20073;-64
2021/09/22 07:42:51;;;;;;;21.95;12.43;;;;;;;13.51;69.43;97769.78;4997183;28;20119;-65
2021/09/22 07:45:37;;;;;;;23.58;13.40;;;;;;;13.14;71.47;97767.31;4996650;28;20074;-65
2021/09/22 07:48:23;;;;;;;20.38;12.40;;;;;;;13.47;70.03;97772.44;5000628;28;20076;-65
2021/09/22 07:51:08;;;;;;;25.20;13.70;;;;;;;13.72;68.52;97783.19;4984941;28;20050;-65
2021/09/22 07:53:55;;;;;;;19.38;12.15;;;;;;;13.63;67.79;97777.09;5006778;28;20562;-65
2021/09/22 07:56:40;;;;;;;21.35;12.82;;;;;;;13.75;67.31;97776.94;5012883;28;20045;-65
2021/09/22 07:59:26;;;;;;;20.77;11.95;;;;;;;13.92;67.49;97773.00;5003786;28;20069;-64
2021/09/22 08:02:11;;;;;;;20.55;11.88;;;;;;;13.88;68.04;97777.59;4989073;28;20058;-64
2021/09/22 08:04:57;;;;;;;21.48;12.57;;;;;;;14.38;66.45;97781.34;5010161;28;20187;-65
2021/09/22 08:07:44;;;;;;;18.58;11.10;;;;;;;14.54;65.92;97790.31;5005048;28;20041;-65
2021/09/22 08:10:30;;;;;;;18.08;12.10;;;;;;;14.81;63.02;97776.63;4994574;28;20054;-64
2021/09/22 08:13:16;;;;;;;19.17;11.35;;;;;;;14.51;63.89;97776.44;4993765;28;20045;-64
2021/09/22 08:16:01;;;;;;;17.45;11.18;;;;;;;15.09;63.85;97775.50;4988491;28;20494;-65
2021/09/22 08:18:47;;;;;;;18.67;11.18;;;;;;;15.30;61.54;97775.03;4989113;28;20058;-66
2021/09/22 08:21:33;;;;;;;19.27;10.95;;;;;;;14.78;63.97;97774.59;4993955;28;20050;-66
2021/09/22 08:35:28;;;;;;;17.77;11.73;;;;;;;15.17;62.56;97768.91;4992067;28;20141;-65
2021/09/22 08:38:14;;;;;;;16.35;10.85;;;;;;;15.18;62.24;97766.94;4989123;28;20113;-66
2021/09/22 08:41:00;;;;;;;16.45;10.80;;;;;;;15.12;63.41;97771.19;4995484;28;20050;-65
2021/09/22 08:43:46;;;;;;;15.95;10.85;;;;;;;15.24;63.38;97766.25;4993260;28;20192;-65
2021/09/22 08:46:33;;;;;;;16.92;11.90;;;;;;;15.56;62.32;97765.94;4992252;28;20130;-65
2021/09/22 08:49:19;;;;;;;15.25;10.32;;;;;;;14.99;63.99;97754.84;4993765;28;20116;-65
2021/09/22 08:52:05;;;;;;;18.55;10.95;;;;;;;15.12;64.59;97762.91;4992013;28;20045;-65
2021/09/22 08:54:51;;;;;;;18.30;10.93;;;;;;;15.56;62.53;97765.16;4989888;28;20053;-65
2021/09/22 08:57:38;;;;;;;15.93;10.32;;;;;;;15.34;63.59;97770.38;4992810;28;20928;-65
2021/09/22 09:00:23;;;;;;;16.88;11.32;;;;;;;15.66;61.72;97764.47;4985669;28;20038;-64
2021/09/22 09:03:29;;;;;;;18.42;12.02;;;;;;;14.67;64.73;97773.63;4993299;28;20401;-64
2021/09/22 09:06:18;;;;;;;19.30;10.38;;;;;;;15.63;64.17;97760.50;4980212;28;20073;-65
2021/09/22 09:09:04;;;;;;;17.33;10.75;;;;;;;15.84;64.24;97768.28;4985355;28;20042;-64
2021/09/22 09:11:50;;;;;;;14.13;10.35;;;;;;;16.00;62.44;97765.34;4990539;28;20125;-65
2021/09/22 09:14:36;;;;;;;16.13;10.88;;;;;;;15.34;62.81;97766.78;4991311;28;20133;-65
2021/09/22 09:17:45;;;;;;;22.75;12.05;;;;;;;15.23;64.35;97750.91;4981432;28;20062;-65
2021/09/22 09:20:31;;;;;;;20.92;11.43;;;;;;;16.06;62.15;97760.25;4989370;28;20049;-65
2021/09/22 09:23:19;;;;;;;17.17;11.32;;;;;;;15.80;62.03;97755.63;4987023;28;20053;-64
2021/09/22 09:26:05;;;;;;;18.40;11.18;;;;;;;15.93;60.81;97753.41;4981852;28;20046;-64
2021/09/22 09:28:56;;;;;;;19.52;11.20;;;;;;;16.09;60.82;97754.00;4988512;28;20049;-63
2021/09/22 09:31:42;;;;;;;20.02;10.82;;;;;;;15.68;63.39;97740.88;4988011;28;20185;-64
2021/09/22 09:34:27;;;;;;;18.73;11.30;;;;;;;15.75;61.93;97740.16;4991257;28;20115;-64
2021/09/22 09:37:15;;;;;;;17.98;10.95;;;;;;;16.35;61.68;97747.56;4983566;28;20034;-65
2021/09/22 09:40:25;;;;;;;16.27;10.27;;;;;;;17.24;57.59;97749.53;4987289;28;20037;-65
2021/09/22 09:43:11;;;;;;;16.30;10.77;;;;;;;16.89;58.61;97748.09;4979550;28;20121;-65
2021/09/22 09:45:57;;;;;;;18.00;11.02;;;;;;;16.67;58.77;97749.84;4987920;28;20126;-65
2021/09/22 09:48:42;;;;;;;15.18;10.43;;;;;;;16.87;58.86;97744.91;4986367;28;20050;-64
2021/09/22 09:51:34;;;;;;;15.10;10.23;;;;;;;16.69;59.16;97736.44;4984451;28;20052;-64
2021/09/22 09:54:25;;;;;;;15.18;9.50;;;;;;;17.44;58.48;97744.50;4980068;28;20100;-65
2021/09/22 09:57:18;;;;;;;14.13;9.35;;;;;;;17.96;55.91;97738.84;4985204;28;20042;-65
2021/09/22 10:00:05;;;;;;;14.15;9.68;;;;;;;18.07;55.55;97742.44;4983130;28;20049;-65
2021/09/22 10:02:52;;;;;;;15.18;10.02;;;;;;;17.30;55.70;97736.13;4980779;28;20045;-65
2021/09/22 10:05:38;;;;;;;14.68;9.93;;;;;;;16.68;56.80;97740.38;4979657;28;20086;-65
2021/09/22 10:08:26;;;;;;;14.98;9.43;;;;;;;16.92;57.55;97730.72;4981343;28;20076;-64
2021/09/22 10:11:12;;;;;;;18.13;10.38;;;;;;;16.74;59.00;97726.97;4974993;28;20072;-65
2021/09/22 10:13:58;;;;;;;15.88;10.55;;;;;;;16.82;56.39;97712.81;4983281;28;20478;-65
2021/09/22 10:16:50;;;;;;;15.38;10.10;;;;;;;16.57;56.49;97725.66;4984481;28;20100;-65
2021/09/22 10:19:36;;;;;;;16.17;10.13;;;;;;;16.53;56.44;97722.84;4980334;28;20042;-65
2021/09/22 10:22:22;;;;;;;15.45;10.10;;;;;;;16.65;57.44;97721.75;4967481;28;20529;-65
2021/09/22 10:25:09;;;;;;;16.15;8.70;;;;;;;17.36;54.98;97727.06;4976963;28;20041;-65
2021/09/22 10:27:55;;;;;;;16.48;9.60;;;;;;;17.63;53.94;97712.16;4983438;28;20058;-65
2021/09/22 10:30:44;;;;;;;18.52;10.20;;;;;;;17.16;55.57;97712.72;4982302;28;20121;-65
2021/09/22 10:33:36;;;;;;;13.98;8.82;;;;;;;16.99;56.54;97707.84;4991273;28;20070;-65
2021/09/22 10:36:39;;;;;;;14.18;9.93;;;;;;;16.53;56.71;97710.97;4966043;28;20559;-64
2021/09/22 10:39:40;;;;;;;13.60;8.23;;;;;;;16.93;56.30;97699.09;4977548;28;20041;-64
2021/09/22 10:42:29;;;;;;;18.55;8.52;;;;;;;17.02;57.38;97704.31;4980302;28;20108;-64
2021/09/22 10:45:19;;;;;;;12.93;8.65;;;;;;;17.16;53.62;97700.81;4983077;28;20064;-64
2021/09/22 10:48:23;;;;;;;13.02;8.13;;;;;;;17.06;55.29;97699.59;4998009;28;20695;-64
2021/09/22 10:51:10;;;;;;;12.80;7.60;;;;;;;17.20;53.67;97698.88;4982681;28;20045;-63
2021/09/22 10:54:09;;;;;;;14.23;8.50;;;;;;;16.94;55.17;97702.66;4991781;28;20509;-63
2021/09/22 10:56:58;;;;;;;13.60;9.85;;;;;;;16.08;56.05;97699.09;5012359;28;20128;-63
2021/09/22 10:59:44;;;;;;;12.57;8.83;;;;;;;16.50;55.08;97695.19;5003723;28;20136;-66
2021/09/22 11:02:44;;;;;;;14.07;8.35;;;;;;;16.89;55.90;97690.00;4973826;28;20383;-65
2021/09/22 11:05:29;;;;;;;;;;;;;;;17.15;53.42;97691.72;4991527;28;20046;-64
2021/09/22 11:08:15;;;;;;;10.95;7.35;;;;;;;17.24;52.66;97687.84;4982066;28;19925;-63
2021/09/22 11:11:01;;;;;;;12.65;7.32;;;;;;;17.41;55.79;97681.59;4994600;28;20041;-63
2021/09/22 11:13:47;;;;;;;14.48;8.00;;;;;;;17.45;53.66;97682.41;4978533;28;20654;-65
2021/09/22 11:16:34;;;;;;;10.82;7.85;;;;;;;17.62;53.11;97672.59;4996653;28;20045;-65
2021/09/22 11:19:23;;;;;;;12.15;8.48;;;;;;;16.85;53.25;97685.59;4993133;28;20048;-64
2021/09/22 11:22:16;;;;;;;16.38;9.00;;;;;;;16.99;53.94;97688.47;4991460;28;20037;-64
2021/09/22 11:25:08;;;;;;;10.70;7.82;;;;;;;17.27;53.99;97687.03;5004670;28;20059;-65
2021/09/22 11:28:05;;;;;;;11.60;7.68;;;;;;;17.42;53.02;97674.09;5007008;28;20074;-64
2021/09/22 11:30:55;;;;;;;12.85;8.68;;;;;;;17.28;53.80;97666.50;4995248;28;20041;-65
2021/09/22 11:33:41;;;;;;;12.50;8.70;;;;;;;17.20;52.69;97677.53;4997324;28;20153;-65
2021/09/22 11:36:27;;;;;;;15.90;8.93;;;;;;;16.97;54.28;97666.72;4990275;28;20050;-64
2021/09/22 11:39:25;;;;;;;14.15;9.07;;;;;;;17.23;53.47;97659.34;4993597;28;20517;-65
2021/09/22 11:42:11;;;;;;;13.68;8.02;;;;;;;17.64;51.37;97656.34;4989249;28;20371;-64
2021/09/22 11:44:57;;;;;;;11.88;7.60;;;;;;;16.92;53.59;97658.75;4997371;28;20046;-64
2021/09/22 11:47:46;;;;;;;12.75;7.45;;;;;;;17.44;52.64;97655.09;4996443;28;20066;-64
2021/09/22 11:50:47;;;;;;;18.27;7.35;;;;;;;17.46;52.21;97663.81;4995019;28;20038;-63
2021/09/22 11:53:36;;;;;;;10.00;7.00;;;;;;;17.45;52.92;97645.59;4998530;28;20045;-63
2021/09/22 11:56:21;;;;;;;10.30;6.87;;;;;;;17.71;51.89;97639.75;5004128;28;20046;-65
2021/09/22 11:59:10;;;;;;;13.95;7.57;;;;;;;17.37;53.19;97636.47;4996332;28;20128;-64
2021/09/22 12:01:55;;;;;;;11.23;7.38;;;;;;;17.39;54.03;97634.91;5015457;28;20662;-64
2021/09/22 12:04:44;;;;;;;10.93;7.15;;;;;;;17.17;55.56;97636.78;5006930;28;20046;-65
2021/09/22 12:07:30;;;;;;;12.05;8.02;;;;;;;17.06;54.37;97632.38;4992388;28;20041;-65
2021/09/22 12:10:16;;;;;;;11.23;7.97;;;;;;;17.11;54.96;97624.50;4984812;28;20241;-64
2021/09/22 12:13:05;;;;;;;12.27;7.85;;;;;;;16.88;55.67;97635.81;4977676;28;20035;-64
2021/09/22 12:15:55;;;;;;;11.88;7.72;;;;;;;16.86;55.56;97629.09;4993595;28;20383;-65
2021/09/22 12:18:41;;;;;;;10.82;7.72;;;;;;;16.84;54.21;97626.72;4991051;28;20054;-64
2021/09/22 12:21:32;;;;;;;11.10;7.88;;;;;;;16.81;56.40;97628.22;4986914;28;20050;-64
2021/09/22 12:24:18;;;;;;;10.13;7.07;;;;;;;17.00;56.26;97609.81;4973150;28;20069;-64
2021/09/22 12:27:11;;;;;;;15.57;8.07;;;;;;;17.09;55.35;97606.69;4996396;28;20038;-65
2021/09/22 12:30:06;;;;;;;13.82;7.55;;;;;;;16.90;56.08;97605.78;4997653;28;20042;-63
2021/09/22 12:32:58;;;;;;;11.32;7.57;;;;;;;17.02;55.98;97595.59;5009994;28;20049;-64
2021/09/22 12:35:43;;;;;;;10.20;7.40;;;;;;;16.76;56.10;97595.41;5002454;28;20722;-64
2021/09/22 12:38:29;;;;;;;11.45;6.93;;;;;;;16.80;56.15;97584.38;4991045;28;20045;-64
2021/09/22 12:41:16;;;;;;;11.27;7.82;;;;;;;16.69;55.99;97584.31;4991540;28;20061;-64
2021/09/22 12:44:02;;;;;;;10.80;7.57;;;;;;;16.52;55.23;97579.44;4984495;28;20069;-66
2021/09/22 12:46:48;;;;;;;10.50;6.25;;;;;;;16.68;56.80;97571.66;4986825;28;20429;-65
2021/09/22 12:49:34;;;;;;;13.43;7.63;;;;;;;16.66;55.91;97573.22;4989815;28;20048;-65
2021/09/22 12:52:21;;;;;;;8.93;5.93;;;;;;;16.56;56.21;97571.97;4983271;28;20054;-65
2021/09/22 12:55:22;;;;;;;9.13;5.90;;;;;;;16.51;55.00;97556.53;4987764;28;20034;-64
2021/09/22 12:58:10;;;;;;;8.93;5.95;;;;;;;16.73;56.63;97568.53;4993195;28;20065;-64
2021/09/22 13:00:59;;;;;;;7.65;5.10;;;;;;;16.84;54.83;97565.84;4993291;28;20042;-64